Time;durP1;ratioP1;P1;durP2;ratioP2;P2;SDS_P1;SDS_P2;PMS_P1;PMS_P2;Temp;Humidity;BMP_temperature;BMP_pressure;BME280_temperature;BME280_humidity;BME280_pressure;Samples;Min_cycle;Max_cycle;Signal;HPM_P1;HPM_P2
2023/03/09 05:12:45;;;;;;;8.30;5.45;;;;;;;6.95;100.00;98459.81;5560441;32;172532;-84
2023/03/09 05:15:49;;;;;;;5.72;4.57;;;;;;;6.88;100.00;98460.22;5565658;32;34691;-85
2023/03/09 05:18:53;;;;;;;7.37;5.60;;;;;;;6.88;100.00;98456.72;5569043;32;35113;-85
2023/03/09 05:21:56;;;;;;;9.82;5.20;;;;;;;6.92;100.00;98449.47;5578889;32;34073;-85
2023/03/09 05:24:59;;;;;;;8.38;4.97;;;;;;;6.95;100.00;98450.12;5571371;32;34784;-85
2023/03/09 05:28:04;;;;;;;9.85;5.07;;;;;;;7.07;100.00;98453.75;5566938;32;34593;-85
2023/03/09 05:31:13;;;;;;;10.43;5.30;;;;;;;7.04;100.00;98467.13;5567401;32;33712;-85
2023/03/09 05:34:18;;;;;;;10.75;5.10;;;;;;;7.14;100.00;98457.66;5568535;32;33305;-87
2023/03/09 05:37:21;;;;;;;8.27;5.30;;;;;;;7.17;100.00;98467.16;5567827;32;34516;-87
2023/03/09 05:40:25;;;;;;;8.18;4.90;;;;;;;7.10;100.00;98461.44;5567365;32;33893;-88
2023/03/09 05:43:29;;;;;;;9.45;5.32;;;;;;;7.17;100.00;98461.87;5567380;32;34030;-87
2023/03/09 05:46:31;;;;;;;10.00;6.18;;;;;;;7.14;100.00;98456.81;5567408;32;33809;-84
2023/03/09 05:49:34;;;;;;;8.38;5.32;;;;;;;7.19;100.00;98465.25;5565976;32;33781;-84
2023/03/09 05:52:38;;;;;;;11.18;5.80;;;;;;;7.20;100.00;98459.03;5565035;32;34014;-84
2023/03/09 05:55:40;;;;;;;11.63;6.30;;;;;;;7.31;100.00;98446.94;5564498;32;34166;-84
2023/03/09 05:58:48;;;;;;;10.35;7.10;;;;;;;7.39;100.00;98449.91;5564788;32;33919;-84
2023/03/09 06:01:51;;;;;;;12.13;6.70;;;;;;;7.35;100.00;98458.97;5565191;32;33915;-84
2023/03/09 06:04:54;;;;;;;13.48;6.90;;;;;;;7.40;100.00;98459.50;5565121;32;33729;-84
2023/03/09 06:07:57;;;;;;;9.63;6.32;;;;;;;7.40;100.00;98457.69;5564679;32;33808;-84
2023/03/09 06:11:00;;;;;;;12.68;5.80;;;;;;;7.57;100.00;98444.31;5566895;32;34468;-84
2023/03/09 06:14:04;;;;;;;6.45;4.80;;;;;;;7.76;100.00;98450.03;5566332;32;33973;-84
2023/03/09 06:17:09;;;;;;;7.53;4.80;;;;;;;8.32;100.00;98451.44;5566404;32;35227;-85
2023/03/09 06:20:12;;;;;;;11.07;4.78;;;;;;;8.62;100.00;98460.75;5570653;32;33771;-85
2023/03/09 06:23:16;;;;;;;5.87;4.30;;;;;;;8.99;100.00;98459.88;5567146;32;34200;-85
2023/03/09 06:26:18;;;;;;;9.50;4.57;;;;;;;9.21;100.00;98460.09;5545781;32;33728;-85
2023/03/09 06:29:23;;;;;;;9.63;5.05;;;;;;;9.23;100.00;98468.75;5550759;32;33975;-85
2023/03/09 06:32:25;;;;;;;8.50;4.47;;;;;;;9.21;100.00;98468.03;5551011;32;34083;-85
2023/03/09 06:35:28;;;;;;;7.80;4.30;;;;;;;9.38;100.00;98464.97;5541461;32;32560;-85
2023/03/09 06:38:31;;;;;;;8.43;4.10;;;;;;;9.47;100.00;98458.12;5552412;32;34492;-85
2023/03/09 06:41:34;;;;;;;10.75;5.05;;;;;;;9.43;100.00;98467.25;5552507;32;34138;-85
2023/03/09 06:44:37;;;;;;;8.55;4.32;;;;;;;9.49;100.00;98458.00;5554191;32;34076;-85
2023/03/09 06:47:40;;;;;;;9.38;4.68;;;;;;;9.59;100.00;98472.22;5552587;32;34796;-84
2023/03/09 06:50:44;;;;;;;9.23;4.62;;;;;;;9.61;100.00;98472.94;5540206;32;34073;-85
2023/03/09 06:53:47;;;;;;;11.07;4.47;;;;;;;9.82;100.00;98485.50;5533793;32;34310;-85
2023/03/09 06:56:52;;;;;;;8.35;4.87;;;;;;;9.79;100.00;98488.38;5534990;32;34057;-84
2023/03/09 06:59:55;;;;;;;7.00;4.45;;;;;;;9.74;100.00;98488.75;5545221;32;34602;-85
2023/03/09 07:02:59;;;;;;;8.00;4.93;;;;;;;10.00;100.00;98479.75;5552828;32;34096;-85
2023/03/09 07:06:03;;;;;;;6.30;4.22;;;;;;;10.02;100.00;98485.78;5546540;32;33614;-85
2023/03/09 07:09:05;;;;;;;8.30;4.87;;;;;;;10.04;100.00;98489.12;5534592;32;33821;-84
2023/03/09 07:12:08;;;;;;;7.32;4.53;;;;;;;10.13;100.00;98472.53;5535219;32;34700;-84
2023/03/09 07:15:11;;;;;;;8.02;4.43;;;;;;;10.07;100.00;98479.13;5548498;32;34230;-84
2023/03/09 07:18:14;;;;;;;10.43;5.12;;;;;;;10.06;100.00;98481.94;5552010;32;34137;-87
2023/03/09 07:21:16;;;;;;;6.15;4.22;;;;;;;10.10;100.00;98478.91;5537204;32;33800;-87
2023/03/09 07:24:21;;;;;;;9.25;4.40;;;;;;;10.09;100.00;98474.59;5544733;32;34305;-88
2023/03/09 07:27:24;;;;;;;8.63;4.47;;;;;;;10.17;100.00;98489.03;5546703;32;34539;-87
2023/03/09 07:30:28;;;;;;;9.48;4.45;;;;;;;10.24;100.00;98490.22;5550873;32;33961;-84
2023/03/09 07:33:30;;;;;;;8.50;4.93;;;;;;;10.28;100.00;98509.38;5535830;32;34187;-85
2023/03/09 07:36:33;;;;;;;6.45;4.68;;;;;;;10.30;100.00;98515.41;5539396;32;33813;-85
2023/03/09 07:39:37;;;;;;;9.00;4.53;;;;;;;10.33;100.00;98531.06;5545361;32;35551;-86
2023/03/09 07:42:39;;;;;;;10.07;5.10;;;;;;;10.30;100.00;98531.31;5535909;32;34525;-85
2023/03/09 07:45:45;;;;;;;11.48;5.10;;;;;;;10.28;100.00;98526.12;5533484;32;34206;-86
2023/03/09 07:48:48;;;;;;;11.75;4.90;;;;;;;10.32;100.00;98519.59;5534060;32;34298;-90
2023/03/09 07:51:51;;;;;;;9.98;4.50;;;;;;;10.28;100.00;98507.59;5534534;32;34433;-90
2023/03/09 07:54:54;;;;;;;7.45;4.37;;;;;;;10.32;100.00;98513.47;5534130;32;34592;-87
2023/03/09 07:57:57;;;;;;;7.57;4.10;;;;;;;10.30;100.00;98510.13;5545413;32;34670;-86
2023/03/09 08:01:00;;;;;;;8.23;4.28;;;;;;;10.44;100.00;98520.50;5550183;32;35255;-86
2023/03/09 08:04:03;;;;;;;10.70;4.40;;;;;;;10.55;100.00;98513.50;5557907;32;34325;-85
2023/03/09 08:07:06;;;;;;;5.60;3.40;;;;;;;10.61;100.00;98513.03;5547490;32;34109;-88
2023/03/09 08:10:10;;;;;;;6.25;3.12;;;;;;;10.85;99.61;98504.88;5555705;32;33476;-87
2023/03/09 08:13:13;;;;;;;9.02;3.60;;;;;;;11.01;98.22;98520.41;5548739;32;33985;-87
2023/03/09 08:16:16;;;;;;;5.78;3.42;;;;;;;11.08;97.62;98522.56;5541031;32;33926;-84
2023/03/09 08:19:21;;;;;;;5.12;3.35;;;;;;;11.32;95.22;98528.50;5552602;32;34374;-84
2023/03/09 08:22:24;;;;;;;4.72;3.05;;;;;;;11.28;96.09;98550.94;5545536;32;33779;-85
2023/03/09 08:25:27;;;;;;;5.87;3.47;;;;;;;11.32;95.17;98549.72;5545196;32;34067;-85
2023/03/09 08:28:31;;;;;;;4.93;3.17;;;;;;;11.31;96.29;98558.66;5533736;32;34960;-86
2023/03/09 08:31:35;;;;;;;7.62;3.10;;;;;;;11.53;94.17;98578.16;5544804;32;34242;-85
2023/03/09 08:34:38;;;;;;;6.72;3.00;;;;;;;11.54;94.00;98595.78;5534320;32;34098;-84
2023/03/09 08:37:41;;;;;;;4.82;3.20;;;;;;;11.67;92.93;98587.59;5543714;32;34584;-84
2023/03/09 08:40:43;;;;;;;7.57;3.17;;;;;;;11.80;92.33;98570.66;5555844;32;34050;-85
2023/03/09 08:43:49;;;;;;;6.53;3.25;;;;;;;11.90;92.02;98547.66;5560646;32;35873;-84
2023/03/09 08:46:52;;;;;;;6.97;3.30;;;;;;;11.94;92.26;98540.25;5562909;32;34134;-86
2023/03/09 08:49:54;;;;;;;6.80;3.28;;;;;;;12.10;91.16;98548.66;5550543;32;33757;-85
2023/03/09 08:52:57;;;;;;;7.85;3.58;;;;;;;12.45;88.84;98543.06;5548830;32;34836;-85
2023/03/09 08:56:06;;;;;;;7.57;3.60;;;;;;;12.55;88.33;98559.91;5552488;32;34761;-85
2023/03/09 08:59:09;;;;;;;6.60;3.33;;;;;;;12.37;88.98;98562.38;5549407;32;33950;-85
2023/03/09 09:02:14;;;;;;;8.90;3.80;;;;;;;12.13;90.79;98556.34;5533990;32;34475;-85
2023/03/09 09:05:17;;;;;;;10.32;3.97;;;;;;;12.02;91.83;98553.72;5542169;32;34599;-85
2023/03/09 09:08:20;;;;;;;10.50;4.00;;;;;;;12.13;91.65;98558.19;5540705;32;35930;-85
2023/03/09 09:11:23;;;;;;;8.07;4.30;;;;;;;12.12;91.56;98556.50;5533798;32;34065;-86
2023/03/09 09:14:27;;;;;;;9.70;4.00;;;;;;;12.25;91.57;98557.12;5534890;32;33905;-84
2023/03/09 09:17:30;;;;;;;7.12;3.62;;;;;;;12.28;91.27;98566.66;5546711;32;33720;-85
2023/03/09 09:20:33;;;;;;;9.45;4.03;;;;;;;12.57;89.17;98571.25;5555952;32;34052;-85
2023/03/09 09:23:37;;;;;;;7.75;4.47;;;;;;;12.72;88.61;98569.06;5552898;32;34639;-85
2023/03/09 09:26:41;;;;;;;4.53;3.25;;;;;;;13.10;86.09;98582.63;5549566;32;33560;-86
2023/03/09 09:29:47;;;;;;;8.10;3.50;;;;;;;13.51;83.61;98585.25;5549195;32;34098;-86
2023/03/09 09:32:49;;;;;;;9.30;3.58;;;;;;;13.80;82.06;98583.56;5546736;32;32460;-85
2023/03/09 09:36:02;;;;;;;3.85;3.10;;;;;;;14.21;80.16;98578.00;5542036;32;33902;-84
2023/03/09 09:39:06;;;;;;;7.20;3.40;;;;;;;14.87;75.56;98573.59;5532814;32;33587;-85
2023/03/09 09:42:25;;;;;;;8.25;3.08;;;;;;;15.27;73.74;98574.19;5548529;32;34017;-85
2023/03/09 09:45:35;;;;;;;5.97;3.28;;;;;;;15.23;72.58;98562.13;5540069;32;33986;-88
2023/03/09 09:48:40;;;;;;;6.93;3.33;;;;;;;15.38;72.95;98581.16;5537797;32;34182;-85
2023/03/09 09:52:01;;;;;;;10.60;3.35;;;;;;;16.09;71.13;98581.28;5548721;32;34078;-83
2023/03/09 09:55:25;;;;;;;5.70;3.17;;;;;;;16.71;66.32;98592.88;5545620;32;34265;-83
2023/03/09 09:58:38;;;;;;;6.30;3.17;;;;;;;16.62;66.98;98575.94;5546968;32;33969;-83
2023/03/09 10:02:13;;;;;;;10.65;3.10;;;;;;;17.42;63.88;98571.19;5553625;32;34002;-83
2023/03/09 10:05:53;;;;;;;7.22;3.10;;;;;;;17.28;62.64;98572.66;5550961;32;34505;-83
2023/03/09 10:09:06;;;;;;;4.80;3.17;;;;;;;16.81;63.70;98587.38;5540180;32;34297;-84
2023/03/09 10:12:14;;;;;;;6.68;3.12;;;;;;;16.43;64.99;98598.41;5544777;32;33315;-85
2023/03/09 10:15:29;;;;;;;4.78;3.20;;;;;;;16.58;65.84;98598.66;5553834;32;34107;-87
2023/03/09 10:18:43;;;;;;;5.43;2.87;;;;;;;16.54;66.27;98602.62;5553023;32;34030;-83
2023/03/09 10:21:56;;;;;;;7.03;2.83;;;;;;;17.07;64.16;98594.53;5553901;32;34182;-82
2023/03/09 10:24:59;;;;;;;5.35;2.87;;;;;;;17.57;62.34;98594.66;5554798;32;33992;-83
2023/03/09 10:28:12;;;;;;;4.72;2.58;;;;;;;17.55;62.22;98602.03;5550286;32;33687;-85
2023/03/09 10:31:20;;;;;;;4.32;2.67;;;;;;;17.18;63.94;98598.75;5550008;32;33809;-85
2023/03/09 10:34:25;;;;;;;4.93;1.98;;;;;;;17.33;62.49;98597.13;5550613;32;34762;-85
2023/03/09 10:37:34;;;;;;;8.10;2.40;;;;;;;17.27;63.02;98595.12;5551198;32;34669;-85
2023/03/09 10:40:42;;;;;;;3.60;2.12;;;;;;;17.01;65.42;98597.84;5552647;32;33856;-84
2023/03/09 10:43:46;;;;;;;4.55;2.20;;;;;;;16.87;64.67;98601.97;5554806;32;33118;-84
2023/03/09 10:46:58;;;;;;;6.72;2.12;;;;;;;16.71;65.77;98614.28;5562591;32;34168;-82
2023/03/09 10:50:11;;;;;;;3.50;2.05;;;;;;;17.36;63.95;98607.50;5550230;32;34152;-83
2023/03/09 10:53:29;;;;;;;12.90;2.42;;;;;;;18.29;57.96;98609.28;5553640;32;33620;-82
2023/03/09 10:56:42;;;;;;;2.45;1.80;;;;;;;18.08;57.95;98610.62;5551733;32;34520;-85
2023/03/09 10:59:56;;;;;;;2.10;1.90;;;;;;;18.02;58.87;98604.09;5561097;32;33653;-84
2023/03/09 11:03:00;;;;;;;4.68;1.92;;;;;;;18.27;58.26;98614.84;5561884;32;34431;-85
2023/03/09 11:06:15;;;;;;;2.60;2.10;;;;;;;18.17;57.27;98620.34;5562999;32;34347;-84
2023/03/09 11:09:39;;;;;;;3.00;1.98;;;;;;;18.08;58.40;98612.47;5562182;32;34777;-88
2023/03/09 11:12:46;;;;;;;5.07;2.40;;;;;;;18.15;57.51;98606.28;5543957;32;34809;-86
2023/03/09 11:16:23;;;;;;;5.75;3.05;;;;;;;17.94;58.29;98603.25;5553658;32;35688;-85
2023/03/09 11:19:26;;;;;;;5.75;3.03;;;;;;;17.20;59.42;98599.44;5545733;32;36370;-85
2023/03/09 11:22:29;;;;;;;4.82;2.95;;;;;;;16.44;61.68;98597.38;5555327;32;33936;-85
2023/03/09 11:25:41;;;;;;;4.37;2.83;;;;;;;16.42;62.62;98602.94;5545663;32;33959;-84
2023/03/09 11:28:52;;;;;;;4.70;3.37;;;;;;;16.46;62.64;98597.25;5559675;32;34096;-85
2023/03/09 11:31:56;;;;;;;4.87;3.20;;;;;;;16.24;63.37;98610.97;5559106;32;34356;-85
2023/03/09 11:35:00;;;;;;;4.65;3.40;;;;;;;16.46;63.59;98605.28;5558949;32;34048;-84
2023/03/09 11:38:11;;;;;;;9.15;3.65;;;;;;;16.74;60.73;98616.63;5554532;32;34513;-83
2023/03/09 11:41:26;;;;;;;9.30;3.30;;;;;;;16.53;63.80;98622.37;5538377;32;35393;-84
2023/03/09 11:44:39;;;;;;;4.68;2.72;;;;;;;17.04;61.78;98635.88;5552748;32;34121;-85
2023/03/09 11:48:05;;;;;;;4.72;2.85;;;;;;;17.58;58.35;98641.91;5551228;32;34131;-85
2023/03/09 11:51:14;;;;;;;7.68;3.17;;;;;;;17.12;53.64;98632.41;5543209;32;34221;-90
2023/03/09 11:54:37;;;;;;;10.68;3.25;;;;;;;16.54;55.23;98643.63;5552718;32;34194;-85
2023/03/09 11:57:45;;;;;;;14.45;3.20;;;;;;;16.42;55.45;98650.25;5544885;32;34843;-85
2023/03/09 12:00:55;;;;;;;14.10;3.03;;;;;;;16.15;56.56;98647.53;5545072;32;34652;-85
2023/03/09 12:04:00;;;;;;;5.87;2.47;;;;;;;16.77;56.17;98656.50;5540600;32;34248;-85
2023/03/09 12:07:31;;;;;;;4.10;2.35;;;;;;;17.00;55.52;98653.22;5545275;32;33884;-85
2023/03/09 12:10:41;;;;;;;3.95;2.28;;;;;;;17.23;54.96;98660.75;5543912;32;34531;-86
2023/03/09 12:13:53;;;;;;;5.00;2.65;;;;;;;17.23;55.12;98668.78;5554473;32;34180;-85
2023/03/09 12:17:03;;;;;;;4.35;2.30;;;;;;;17.01;56.33;98671.00;5552336;32;33938;-85
2023/03/09 12:20:06;;;;;;;3.87;2.60;;;;;;;16.78;57.39;98666.19;5532873;32;33734;-86
2023/03/09 12:23:46;;;;;;;10.13;2.33;;;;;;;16.92;55.85;98677.31;5541319;32;33770;-85
2023/03/09 12:27:02;;;;;;;7.17;2.30;;;;;;;17.22;55.02;98691.22;5471206;32;35222;-90
2023/03/09 12:30:20;;;;;;;5.85;2.45;;;;;;;16.71;55.79;98691.94;5458980;32;34143;-87
2023/03/09 12:33:41;;;;;;;6.90;2.20;;;;;;;15.99;57.37;98690.19;5469497;32;33781;-87
2023/03/09 12:36:44;;;;;;;;;;;;;;;16.06;56.31;98691.25;5472725;32;34480;-86
2023/03/09 12:39:58;;;;;;;6.07;1.87;;;;;;;16.46;55.58;98704.28;5478755;32;34823;-86
2023/03/09 12:43:13;;;;;;;8.57;2.58;;;;;;;16.51;53.05;98689.47;5477438;32;33574;-87
2023/03/09 12:46:48;;;;;;;7.78;2.17;;;;;;;16.47;53.30;98708.62;5464617;32;34331;-87
2023/03/09 12:49:54;;;;;;;7.22;1.50;;;;;;;16.74;52.20;98704.16;5466574;32;33744;-87
2023/03/09 12:53:06;;;;;;;5.18;1.30;;;;;;;16.71;50.34;98706.13;5472941;32;33805;-88
2023/03/09 12:56:18;;;;;;;4.10;1.30;;;;;;;16.62;49.61;98703.56;5468031;32;33516;-87
2023/03/09 12:59:27;;;;;;;5.57;1.45;;;;;;;16.83;48.87;98722.78;5477879;32;33910;-87
2023/03/09 13:02:33;;;;;;;4.12;1.25;;;;;;;16.41;48.69;98728.84;5563296;32;34773;-86
2023/03/09 13:05:42;;;;;;;16.45;2.00;;;;;;;16.28;48.90;98724.72;5557713;32;35134;-86
2023/03/09 13:08:54;;;;;;;7.15;1.23;;;;;;;16.27;48.72;98730.22;5543839;32;33532;-91
2023/03/09 13:11:56;;;;;;;26.77;2.05;;;;;;;16.14;48.97;98731.44;5545445;32;34053;-88
2023/03/09 13:15:18;;;;;;;2.87;1.20;;;;;;;16.27;48.97;98727.53;5548745;32;34048;-87
2023/03/09 13:18:26;;;;;;;6.93;1.48;;;;;;;16.02;49.49;98730.00;5550902;32;34597;-86
2023/03/09 13:21:38;;;;;;;3.12;1.40;;;;;;;15.71;50.47;98723.16;5552813;32;34080;-86
2023/03/09 13:24:42;;;;;;;2.78;1.20;;;;;;;15.98;50.16;98737.47;5540979;32;34263;-86
2023/03/09 13:27:45;;;;;;;7.15;1.50;;;;;;;15.86;50.70;98754.69;5552135;32;34146;-86
2023/03/09 13:30:50;;;;;;;3.25;1.20;;;;;;;16.00;50.00;98746.19;5548445;32;36479;-86
2023/03/09 13:33:54;;;;;;;2.42;1.50;;;;;;;15.93;50.46;98752.31;5553750;32;34800;-86
2023/03/09 13:37:04;;;;;;;2.60;1.30;;;;;;;15.79;51.00;98759.81;5551316;32;34266;-86
2023/03/09 13:40:36;;;;;;;3.95;1.15;;;;;;;15.97;51.09;98753.66;5552326;32;34227;-86
2023/03/09 13:43:44;;;;;;;1.92;1.30;;;;;;;16.04;50.44;98752.06;5551856;32;35050;-87
2023/03/09 13:46:53;;;;;;;9.73;1.35;;;;;;;15.77;50.94;98769.81;5553343;32;34214;-85
2023/03/09 13:49:58;;;;;;;3.03;1.30;;;;;;;15.74;51.07;98762.09;5555501;32;34274;-86
2023/03/09 13:53:23;;;;;;;3.30;1.10;;;;;;;16.24;49.31;98768.81;5557910;32;33681;-86
2023/03/09 13:56:28;;;;;;;22.85;2.12;;;;;;;16.02;50.21;98768.28;5556594;32;34050;-85
2023/03/09 13:59:57;;;;;;;11.65;1.30;;;;;;;16.18;48.28;98766.75;5565697;32;33728;-89
2023/03/09 14:03:00;;;;;;;9.40;1.83;;;;;;;15.91;49.23;98784.50;5559551;32;35263;-86
2023/03/09 14:06:08;;;;;;;6.15;1.50;;;;;;;15.86;49.05;98776.09;5554702;32;34803;-86
2023/03/09 14:09:36;;;;;;;4.55;1.00;;;;;;;15.94;48.62;98788.75;5553039;32;33711;-86
2023/03/09 14:12:39;;;;;;;1.58;1.02;;;;;;;15.46;48.90;98802.16;5554782;32;34541;-87
2023/03/09 14:15:59;;;;;;;2.47;0.98;;;;;;;15.69;48.54;98799.94;5552745;32;35250;-86
2023/03/09 14:19:04;;;;;;;5.80;1.00;;;;;;;15.69;48.08;98805.28;5553736;32;34184;-85
2023/03/09 14:22:18;;;;;;;2.12;1.23;;;;;;;15.61;48.08;98814.06;5553904;32;34387;-84
2023/03/09 14:25:24;;;;;;;2.42;0.77;;;;;;;15.37;48.50;98817.25;5536142;32;33958;-85
2023/03/09 14:28:28;;;;;;;3.53;0.90;;;;;;;15.31;48.32;98815.16;5550745;32;33840;-84
2023/03/09 14:31:32;;;;;;;3.65;1.27;;;;;;;15.46;48.29;98813.72;5553287;32;33833;-86
2023/03/09 14:34:34;;;;;;;4.65;1.08;;;;;;;15.33;48.52;98806.00;5553449;32;33812;-85
2023/03/09 14:37:38;;;;;;;2.28;0.90;;;;;;;15.27;48.20;98801.25;5552721;32;34685;-85
2023/03/09 14:40:41;;;;;;;2.30;0.75;;;;;;;15.68;47.55;98794.78;5553654;32;34092;-86
2023/03/09 14:43:45;;;;;;;1.62;1.17;;;;;;;15.62;46.88;98791.69;5550405;32;33924;-86
2023/03/09 14:46:47;;;;;;;2.83;1.12;;;;;;;15.74;47.15;98813.72;5549597;32;33993;-86
2023/03/09 14:49:53;;;;;;;1.02;0.80;;;;;;;15.89;46.43;98811.37;5547777;32;33842;-86
2023/03/09 14:52:56;;;;;;;4.22;1.00;;;;;;;15.84;46.01;98796.81;5552287;32;33886;-86
2023/03/09 14:55:59;;;;;;;4.50;0.88;;;;;;;15.65;46.34;98787.03;5547803;32;33952;-86
2023/03/09 14:59:11;;;;;;;2.25;0.73;;;;;;;15.85;45.83;98788.59;5533159;32;34222;-85
2023/03/09 15:02:16;;;;;;;4.03;1.25;;;;;;;15.65;45.67;98795.06;5534079;32;34127;-89
2023/03/09 15:05:22;;;;;;;5.32;1.60;;;;;;;15.38;45.21;98784.19;5540309;32;34071;-89
2023/03/09 15:08:25;;;;;;;5.60;1.25;;;;;;;15.40;45.15;98784.06;5553889;32;34266;-90
2023/03/09 15:11:28;;;;;;;2.95;1.02;;;;;;;15.43;45.13;98786.44;5552890;32;34564;-87
2023/03/09 15:14:42;;;;;;;3.97;0.95;;;;;;;15.26;45.96;98783.53;5552918;32;33369;-85
2023/03/09 15:17:45;;;;;;;4.97;1.20;;;;;;;15.40;45.78;98792.06;5550296;32;33732;-84
2023/03/09 15:20:48;;;;;;;8.95;1.52;;;;;;;15.59;45.16;98810.69;5554206;32;34095;-84
2023/03/09 15:23:51;;;;;;;2.65;1.00;;;;;;;15.75;44.62;98795.88;5554025;32;33542;-85
2023/03/09 15:26:57;;;;;;;4.87;1.35;;;;;;;15.76;44.42;98795.69;5555998;32;34764;-85
2023/03/09 15:30:02;;;;;;;2.33;0.82;;;;;;;15.68;44.74;98794.78;5555304;32;35028;-85
2023/03/09 15:33:06;;;;;;;7.55;1.10;;;;;;;15.71;44.82;98795.31;5553525;32;34491;-85
2023/03/09 15:36:09;;;;;;;12.95;1.40;;;;;;;15.49;45.06;98796.56;5552787;32;34356;-85
2023/03/09 15:39:13;;;;;;;3.90;1.20;;;;;;;15.34;45.30;98814.88;5553251;32;34395;-85
2023/03/09 15:42:19;;;;;;;6.72;1.23;;;;;;;15.31;45.11;98812.50;5542859;32;34700;-85
2023/03/09 15:45:23;;;;;;;2.35;1.58;;;;;;;15.33;44.61;98826.53;5554229;32;34175;-85
2023/03/09 15:48:26;;;;;;;2.62;1.37;;;;;;;15.23;44.75;98821.22;5555129;32;34849;-85
2023/03/09 15:51:32;;;;;;;3.10;1.20;;;;;;;15.17;44.91;98830.66;5554129;32;33993;-85
2023/03/09 15:54:35;;;;;;;2.65;0.90;;;;;;;14.97;45.42;98829.84;5556621;32;34075;-85
2023/03/09 15:57:38;;;;;;;7.93;1.25;;;;;;;14.86;45.69;98840.69;5557725;32;34725;-85
2023/03/09 16:00:40;;;;;;;2.40;1.20;;;;;;;14.75;46.06;98839.88;5555411;32;34375;-85
2023/03/09 16:03:45;;;;;;;2.17;1.00;;;;;;;14.79;45.66;98846.59;5553982;32;33807;-85
2023/03/09 16:06:47;;;;;;;6.25;1.30;;;;;;;14.79;45.59;98854.59;5556535;32;34756;-85
2023/03/09 16:09:50;;;;;;;3.30;1.40;;;;;;;14.77;45.66;98858.37;5557605;32;34293;-85
2023/03/09 16:12:53;;;;;;;3.87;1.10;;;;;;;14.72;46.06;98865.97;5557405;32;34291;-85
2023/03/09 16:15:56;;;;;;;5.10;1.40;;;;;;;14.50;46.63;98868.75;5554363;32;33899;-85
2023/03/09 16:18:59;;;;;;;3.05;1.25;;;;;;;14.56;46.81;98872.69;5554967;32;34207;-85
2023/03/09 16:22:02;;;;;;;7.32;1.50;;;;;;;14.38;47.35;98880.53;5553239;32;33731;-86
2023/03/09 16:25:05;;;;;;;3.42;1.12;;;;;;;14.26;47.78;98888.66;5564993;32;34637;-85
2023/03/09 16:28:08;;;;;;;2.85;1.30;;;;;;;14.20;48.12;98885.66;5559901;32;35293;-85
2023/03/09 16:31:22;;;;;;;4.82;1.33;;;;;;;14.12;48.43;98902.34;5554909;32;34738;-85
